Airfield :
LOGIN :

Register | Disclaimer

   EN    FR    IT 

 










Legend :    VFR   Marginal VFR   IFR   Intensive IFR   Very Intensive IFR
Visi :
Ceiling :
>= 8 km
>= 3000ft
5 to 8 km
1000 to 3000 ft
1500m to 5 km
500 to 1000 ft
800 to 1500m
200 to 500 ft
< 800m
< 200 ft
Symbols :   Thunderstorms  Fog  Heavy snow  Heavy precipitations  Wind > 20 kt
SIGMETs :     Misc.  Thunderstorms  Icing  Turbulence  Mountain Waves  Volcanic Ashes







- Airport Elevation : 427 ft
- IATA code : CIA


LIRA - Roma Ciampino

CURRENT METAR :
  • 170220Z 19011KT 160V220 9999 -RA BKN020 12/10 Q1010 RERA

EXPIRED METARs :
  • 170150Z 16012G23KT 5000 RA BKN020 12/10 Q1009
  • 170120Z 15014KT 9999 -RA BKN030 12/10 Q1010
  • 170050Z 15016G29KT 9999 BKN035 12/10 Q1010
  • 170020Z 15016KT 9999 -RA BKN035 12/09 Q1010 RERA
  • 162350Z 15017G27KT 6000 RA BKN030 11/09 Q1011

TAF TAF LIRA
Valid from the 17 at 00:00 until the 18 at 00:00 UTC


162300Z 1700/1724 16016G26KT 9999 SCT030
BECMG 1700/1703 VRB05KT
TEMPO 1700/1706 4000 RA
BECMG 1706/1709 34012KT
No reported NOTAMs for that airfield.
2 SIGMETs reported for the Roma FIR (LIRR) :
 
Severe turbulence
LIRR SIGMET 5 VALID 170100/170300 LIIB
LIRR ROMA FIR SEV TURB FCST W OF LINE N4131 E00945 - N3758 E00956 FL010/080 STNR NC=
Severe icing
LIRR SIGMET 1 VALID 170206/170506 LIIB
LIRR ROMA FIR SEV ICE FCST N OF LINE N4254 E01349 - N4347 E01006 ABV FL040 STNR NC=



MET'MAP, your aeronautical weather chart ! - Copyright ORBIFLY December 2007 - Disclaimer

ORBIFLY MET'MAP TEAM :

Programming & Development : Alexandra Zaïnal
Concept & Development : Baudouin d'Aumeries
Co-Development & Prog : Marc-Olivier Méhu
Technical & hardware support : Manuel Goepfert

Contact : metmap@orbifly.com




SOURCES & CREDITS :

   NOAA